sensor_id;sensor_type;location;lat;lon;timestamp;temperature;humidity
21950;DHT22;11139;51.284;7.226;2023-10-19T00:00:36;11.30;99.90
21950;DHT22;11139;51.284;7.226;2023-10-19T00:03:04;11.30;99.90
21950;DHT22;11139;51.284;7.226;2023-10-19T00:05:34;11.30;99.90
21950;DHT22;11139;51.284;7.226;2023-10-19T00:08:00;11.30;99.90
21950;DHT22;11139;51.284;7.226;2023-10-19T00:10:31;11.30;99.90
21950;DHT22;11139;51.284;7.226;2023-10-19T00:13:00;11.30;99.90
21950;DHT22;11139;51.284;7.226;2023-10-19T00:15:30;11.30;99.90
21950;DHT22;11139;51.284;7.226;2023-10-19T00:17:57;11.40;99.90
21950;DHT22;11139;51.284;7.226;2023-10-19T00:20:25;11.30;99.90
21950;DHT22;11139;51.284;7.226;2023-10-19T00:22:57;11.30;99.90
21950;DHT22;11139;51.284;7.226;2023-10-19T00:25:23;11.30;99.90
21950;DHT22;11139;51.284;7.226;2023-10-19T00:27:49;11.30;99.90
21950;DHT22;11139;51.284;7.226;2023-10-19T00:30:15;11.30;99.90
21950;DHT22;11139;51.284;7.226;2023-10-19T00:32:44;11.30;99.90
21950;DHT22;11139;51.284;7.226;2023-10-19T00:35:11;11.30;99.90
21950;DHT22;11139;51.284;7.226;2023-10-19T00:37:53;11.30;99.90
21950;DHT22;11139;51.284;7.226;2023-10-19T00:40:22;11.40;99.90
21950;DHT22;11139;51.284;7.226;2023-10-19T00:43:03;11.40;99.90
21950;DHT22;11139;51.284;7.226;2023-10-19T00:45:33;11.40;99.90
21950;DHT22;11139;51.284;7.226;2023-10-19T00:48:06;11.30;99.90
21950;DHT22;11139;51.284;7.226;2023-10-19T00:50:33;11.40;99.90
21950;DHT22;11139;51.284;7.226;2023-10-19T00:52:59;11.30;99.90
21950;DHT22;11139;51.284;7.226;2023-10-19T00:55:25;11.40;99.90
21950;DHT22;11139;51.284;7.226;2023-10-19T00:57:53;11.40;99.90
21950;DHT22;11139;51.284;7.226;2023-10-19T01:00:19;11.40;99.90
21950;DHT22;11139;51.284;7.226;2023-10-19T01:02:59;11.40;99.90
21950;DHT22;11139;51.284;7.226;2023-10-19T01:05:26;11.40;99.90
21950;DHT22;11139;51.284;7.226;2023-10-19T01:08:01;11.40;99.90
21950;DHT22;11139;51.284;7.226;2023-10-19T01:10:28;11.40;99.90
21950;DHT22;11139;51.284;7.226;2023-10-19T01:12:54;11.40;99.90
21950;DHT22;11139;51.284;7.226;2023-10-19T01:15:21;11.40;99.90
21950;DHT22;11139;51.284;7.226;2023-10-19T01:17:55;11.40;99.90
21950;DHT22;11139;51.284;7.226;2023-10-19T01:20:22;11.40;99.90
21950;DHT22;11139;51.284;7.226;2023-10-19T01:23:07;11.40;99.90
21950;DHT22;11139;51.284;7.226;2023-10-19T01:28:24;11.40;99.90
21950;DHT22;11139;51.284;7.226;2023-10-19T01:31:09;11.40;99.90
21950;DHT22;11139;51.284;7.226;2023-10-19T01:33:39;11.40;99.90
21950;DHT22;11139;51.284;7.226;2023-10-19T01:36:07;11.40;99.90
21950;DHT22;11139;51.284;7.226;2023-10-19T01:38:40;11.40;99.90
21950;DHT22;11139;51.284;7.226;2023-10-19T01:41:07;11.40;99.90
21950;DHT22;11139;51.284;7.226;2023-10-19T01:43:42;11.40;99.90
21950;DHT22;11139;51.284;7.226;2023-10-19T01:46:08;11.40;99.90
21950;DHT22;11139;51.284;7.226;2023-10-19T01:48:47;11.50;99.90
21950;DHT22;11139;51.284;7.226;2023-10-19T01:51:14;11.50;99.90
21950;DHT22;11139;51.284;7.226;2023-10-19T01:53:40;11.40;99.90
21950;DHT22;11139;51.284;7.226;2023-10-19T01:56:13;11.50;99.90
21950;DHT22;11139;51.284;7.226;2023-10-19T01:58:40;11.50;99.90
21950;DHT22;11139;51.284;7.226;2023-10-19T02:01:06;11.50;99.90
21950;DHT22;11139;51.284;7.226;2023-10-19T02:03:34;11.50;99.90
21950;DHT22;11139;51.284;7.226;2023-10-19T02:06:01;11.50;99.90
21950;DHT22;11139;51.284;7.226;2023-10-19T02:08:36;11.50;99.90
21950;DHT22;11139;51.284;7.226;2023-10-19T02:11:05;11.50;99.90
21950;DHT22;11139;51.284;7.226;2023-10-19T02:13:35;11.50;99.90
21950;DHT22;11139;51.284;7.226;2023-10-19T02:16:01;11.50;99.90
21950;DHT22;11139;51.284;7.226;2023-10-19T02:18:26;11.50;99.90
21950;DHT22;11139;51.284;7.226;2023-10-19T02:20:52;11.50;99.90
21950;DHT22;11139;51.284;7.226;2023-10-19T02:23:17;11.50;99.90
21950;DHT22;11139;51.284;7.226;2023-10-19T02:25:43;11.50;99.90
21950;DHT22;11139;51.284;7.226;2023-10-19T02:28:10;11.50;99.90
21950;DHT22;11139;51.284;7.226;2023-10-19T02:30:36;11.50;99.90
21950;DHT22;11139;51.284;7.226;2023-10-19T02:33:05;11.50;99.90
21950;DHT22;11139;51.284;7.226;2023-10-19T02:35:33;11.50;99.90
21950;DHT22;11139;51.284;7.226;2023-10-19T02:38:02;11.50;99.90
21950;DHT22;11139;51.284;7.226;2023-10-19T02:40:29;11.50;99.90
21950;DHT22;11139;51.284;7.226;2023-10-19T02:42:59;11.50;99.90
21950;DHT22;11139;51.284;7.226;2023-10-19T02:45:28;11.50;99.90
21950;DHT22;11139;51.284;7.226;2023-10-19T02:47:57;11.50;99.90
21950;DHT22;11139;51.284;7.226;2023-10-19T02:50:23;11.50;99.90
21950;DHT22;11139;51.284;7.226;2023-10-19T02:52:52;11.50;99.90
21950;DHT22;11139;51.284;7.226;2023-10-19T02:55:18;11.50;99.90
21950;DHT22;11139;51.284;7.226;2023-10-19T02:57:48;11.50;99.90
21950;DHT22;11139;51.284;7.226;2023-10-19T03:00:15;11.50;99.90
21950;DHT22;11139;51.284;7.226;2023-10-19T03:02:45;11.50;99.90
21950;DHT22;11139;51.284;7.226;2023-10-19T03:05:10;11.60;99.90
21950;DHT22;11139;51.284;7.226;2023-10-19T03:07:45;11.60;99.90
21950;DHT22;11139;51.284;7.226;2023-10-19T03:10:11;11.60;99.90
21950;DHT22;11139;51.284;7.226;2023-10-19T03:12:59;11.60;99.90
21950;DHT22;11139;51.284;7.226;2023-10-19T03:15:25;11.60;99.90
21950;DHT22;11139;51.284;7.226;2023-10-19T03:17:50;11.60;99.90
21950;DHT22;11139;51.284;7.226;2023-10-19T03:20:16;11.60;99.90
21950;DHT22;11139;51.284;7.226;2023-10-19T03:22:48;11.60;99.90
21950;DHT22;11139;51.284;7.226;2023-10-19T03:25:14;11.60;99.90
21950;DHT22;11139;51.284;7.226;2023-10-19T03:27:58;11.60;99.90
21950;DHT22;11139;51.284;7.226;2023-10-19T03:30:31;11.60;99.90
21950;DHT22;11139;51.284;7.226;2023-10-19T03:32:57;11.60;99.90
21950;DHT22;11139;51.284;7.226;2023-10-19T03:35:24;11.60;99.90
21950;DHT22;11139;51.284;7.226;2023-10-19T03:37:52;11.60;99.90
21950;DHT22;11139;51.284;7.226;2023-10-19T03:40:18;11.60;99.90
21950;DHT22;11139;51.284;7.226;2023-10-19T03:42:54;11.60;99.90
21950;DHT22;11139;51.284;7.226;2023-10-19T03:45:20;11.60;99.90
21950;DHT22;11139;51.284;7.226;2023-10-19T03:47:50;11.60;99.90
21950;DHT22;11139;51.284;7.226;2023-10-19T03:50:15;11.60;99.90
21950;DHT22;11139;51.284;7.226;2023-10-19T03:52:45;11.60;99.90
21950;DHT22;11139;51.284;7.226;2023-10-19T03:55:11;11.60;99.90
21950;DHT22;11139;51.284;7.226;2023-10-19T03:57:37;11.60;99.90
21950;DHT22;11139;51.284;7.226;2023-10-19T04:00:06;11.60;99.90
21950;DHT22;11139;51.284;7.226;2023-10-19T04:02:36;11.60;99.90
21950;DHT22;11139;51.284;7.226;2023-10-19T04:05:03;11.60;99.90
21950;DHT22;11139;51.284;7.226;2023-10-19T04:07:29;11.60;99.90
21950;DHT22;11139;51.284;7.226;2023-10-19T04:09:57;11.60;99.90
21950;DHT22;11139;51.284;7.226;2023-10-19T04:12:31;11.60;99.90
21950;DHT22;11139;51.284;7.226;2023-10-19T04:14:57;11.60;99.90
21950;DHT22;11139;51.284;7.226;2023-10-19T04:17:23;11.60;99.90
21950;DHT22;11139;51.284;7.226;2023-10-19T04:19:49;11.60;99.90
21950;DHT22;11139;51.284;7.226;2023-10-19T04:22:16;11.60;99.90
21950;DHT22;11139;51.284;7.226;2023-10-19T04:24:48;11.60;99.90
21950;DHT22;11139;51.284;7.226;2023-10-19T04:27:14;11.60;99.90
21950;DHT22;11139;51.284;7.226;2023-10-19T04:29:40;11.60;99.90
21950;DHT22;11139;51.284;7.226;2023-10-19T04:32:09;11.60;99.90
21950;DHT22;11139;51.284;7.226;2023-10-19T04:34:35;11.60;99.90
21950;DHT22;11139;51.284;7.226;2023-10-19T04:37:02;11.70;99.90
21950;DHT22;11139;51.284;7.226;2023-10-19T04:39:28;11.60;99.90
21950;DHT22;11139;51.284;7.226;2023-10-19T04:41:55;11.60;99.90
21950;DHT22;11139;51.284;7.226;2023-10-19T04:44:21;11.60;99.90
21950;DHT22;11139;51.284;7.226;2023-10-19T04:46:48;11.70;99.90
21950;DHT22;11139;51.284;7.226;2023-10-19T04:49:13;11.70;99.90
21950;DHT22;11139;51.284;7.226;2023-10-19T04:51:39;11.60;99.90
21950;DHT22;11139;51.284;7.226;2023-10-19T04:54:05;11.60;99.90
21950;DHT22;11139;51.284;7.226;2023-10-19T04:56:31;11.60;99.90
21950;DHT22;11139;51.284;7.226;2023-10-19T04:58:57;11.60;99.90
21950;DHT22;11139;51.284;7.226;2023-10-19T05:01:22;11.70;99.90
21950;DHT22;11139;51.284;7.226;2023-10-19T05:03:48;11.70;99.90
21950;DHT22;11139;51.284;7.226;2023-10-19T05:06:13;11.60;99.90
21950;DHT22;11139;51.284;7.226;2023-10-19T05:08:39;11.60;99.90
21950;DHT22;11139;51.284;7.226;2023-10-19T05:11:05;11.70;99.90
21950;DHT22;11139;51.284;7.226;2023-10-19T05:13:31;11.70;99.90
21950;DHT22;11139;51.284;7.226;2023-10-19T05:15:56;11.70;99.90
21950;DHT22;11139;51.284;7.226;2023-10-19T05:18:24;11.70;99.90
21950;DHT22;11139;51.284;7.226;2023-10-19T05:20:50;11.70;99.90
21950;DHT22;11139;51.284;7.226;2023-10-19T05:23:23;11.70;99.90
21950;DHT22;11139;51.284;7.226;2023-10-19T05:25:50;11.70;99.90
21950;DHT22;11139;51.284;7.226;2023-10-19T05:28:17;11.70;99.90
21950;DHT22;11139;51.284;7.226;2023-10-19T05:30:44;11.70;99.90
21950;DHT22;11139;51.284;7.226;2023-10-19T05:33:09;11.70;99.90
21950;DHT22;11139;51.284;7.226;2023-10-19T05:35:35;11.70;99.90
21950;DHT22;11139;51.284;7.226;2023-10-19T05:38:06;11.70;99.90
21950;DHT22;11139;51.284;7.226;2023-10-19T05:40:31;11.70;99.90
21950;DHT22;11139;51.284;7.226;2023-10-19T05:42:57;11.70;99.90
21950;DHT22;11139;51.284;7.226;2023-10-19T05:45:23;11.70;99.90
21950;DHT22;11139;51.284;7.226;2023-10-19T05:47:49;11.70;99.90
21950;DHT22;11139;51.284;7.226;2023-10-19T05:50:14;11.70;99.90
21950;DHT22;11139;51.284;7.226;2023-10-19T05:52:41;11.70;99.90
21950;DHT22;11139;51.284;7.226;2023-10-19T05:55:08;11.70;99.90
21950;DHT22;11139;51.284;7.226;2023-10-19T05:57:33;11.70;99.90
21950;DHT22;11139;51.284;7.226;2023-10-19T05:59:59;11.70;99.90
21950;DHT22;11139;51.284;7.226;2023-10-19T06:02:24;11.70;99.90
21950;DHT22;11139;51.284;7.226;2023-10-19T06:04:50;11.70;99.90
21950;DHT22;11139;51.284;7.226;2023-10-19T06:07:16;11.70;99.90
21950;DHT22;11139;51.284;7.226;2023-10-19T06:09:41;11.70;99.90
21950;DHT22;11139;51.284;7.226;2023-10-19T06:12:07;11.70;99.90
21950;DHT22;11139;51.284;7.226;2023-10-19T06:14:34;11.70;99.90
21950;DHT22;11139;51.284;7.226;2023-10-19T06:17:00;11.70;99.90
21950;DHT22;11139;51.284;7.226;2023-10-19T06:19:26;11.70;99.90
21950;DHT22;11139;51.284;7.226;2023-10-19T06:21:52;11.70;99.90
21950;DHT22;11139;51.284;7.226;2023-10-19T06:24:17;11.70;99.90
21950;DHT22;11139;51.284;7.226;2023-10-19T06:26:44;11.70;99.90
21950;DHT22;11139;51.284;7.226;2023-10-19T06:29:09;11.70;99.90
21950;DHT22;11139;51.284;7.226;2023-10-19T06:31:36;11.70;99.90
21950;DHT22;11139;51.284;7.226;2023-10-19T06:34:01;11.70;99.90
21950;DHT22;11139;51.284;7.226;2023-10-19T06:36:28;11.70;99.90
21950;DHT22;11139;51.284;7.226;2023-10-19T06:38:54;11.70;99.90
21950;DHT22;11139;51.284;7.226;2023-10-19T06:41:20;11.70;99.90
21950;DHT22;11139;51.284;7.226;2023-10-19T06:43:46;11.70;99.90
21950;DHT22;11139;51.284;7.226;2023-10-19T06:46:11;11.70;99.90
21950;DHT22;11139;51.284;7.226;2023-10-19T06:48:37;11.70;99.90
21950;DHT22;11139;51.284;7.226;2023-10-19T06:51:03;11.70;99.90
21950;DHT22;11139;51.284;7.226;2023-10-19T06:53:28;11.70;99.90
21950;DHT22;11139;51.284;7.226;2023-10-19T06:55:54;11.80;99.90
21950;DHT22;11139;51.284;7.226;2023-10-19T06:58:20;11.70;99.90
21950;DHT22;11139;51.284;7.226;2023-10-19T07:00:46;11.70;99.90
21950;DHT22;11139;51.284;7.226;2023-10-19T07:03:21;11.70;99.90
21950;DHT22;11139;51.284;7.226;2023-10-19T07:05:48;11.70;99.90
21950;DHT22;11139;51.284;7.226;2023-10-19T07:08:15;11.70;99.90
21950;DHT22;11139;51.284;7.226;2023-10-19T07:10:41;11.80;99.90
21950;DHT22;11139;51.284;7.226;2023-10-19T07:13:08;11.80;99.90
21950;DHT22;11139;51.284;7.226;2023-10-19T07:15:34;11.80;99.90
21950;DHT22;11139;51.284;7.226;2023-10-19T07:17:59;11.90;99.90
21950;DHT22;11139;51.284;7.226;2023-10-19T07:20:25;11.80;99.90
21950;DHT22;11139;51.284;7.226;2023-10-19T07:22:51;11.80;99.90
21950;DHT22;11139;51.284;7.226;2023-10-19T07:25:17;11.90;99.90
21950;DHT22;11139;51.284;7.226;2023-10-19T07:27:50;11.90;99.90
21950;DHT22;11139;51.284;7.226;2023-10-19T07:30:19;11.80;99.90
21950;DHT22;11139;51.284;7.226;2023-10-19T07:32:51;11.80;99.90
21950;DHT22;11139;51.284;7.226;2023-10-19T07:35:22;11.80;99.90
21950;DHT22;11139;51.284;7.226;2023-10-19T07:37:51;11.80;99.90
21950;DHT22;11139;51.284;7.226;2023-10-19T07:40:16;11.80;99.90
21950;DHT22;11139;51.284;7.226;2023-10-19T07:42:43;11.90;99.90
21950;DHT22;11139;51.284;7.226;2023-10-19T07:45:09;11.90;99.90
21950;DHT22;11139;51.284;7.226;2023-10-19T07:47:38;11.90;99.90
21950;DHT22;11139;51.284;7.226;2023-10-19T07:50:06;11.90;99.90
21950;DHT22;11139;51.284;7.226;2023-10-19T07:52:37;11.90;99.90
21950;DHT22;11139;51.284;7.226;2023-10-19T07:55:04;11.80;99.90
21950;DHT22;11139;51.284;7.226;2023-10-19T07:57:30;11.90;99.90
21950;DHT22;11139;51.284;7.226;2023-10-19T07:59:55;11.80;99.90
21950;DHT22;11139;51.284;7.226;2023-10-19T08:02:22;11.80;99.90
21950;DHT22;11139;51.284;7.226;2023-10-19T08:04:50;11.80;99.90
21950;DHT22;11139;51.284;7.226;2023-10-19T08:07:16;11.80;99.90
21950;DHT22;11139;51.284;7.226;2023-10-19T08:09:42;11.90;99.90
21950;DHT22;11139;51.284;7.226;2023-10-19T08:12:09;11.90;99.90
21950;DHT22;11139;51.284;7.226;2023-10-19T08:14:34;11.90;99.90
21950;DHT22;11139;51.284;7.226;2023-10-19T08:17:00;11.90;99.90
21950;DHT22;11139;51.284;7.226;2023-10-19T08:19:27;11.90;99.90
21950;DHT22;11139;51.284;7.226;2023-10-19T08:21:53;11.90;99.90
21950;DHT22;11139;51.284;7.226;2023-10-19T08:24:18;11.90;99.90
21950;DHT22;11139;51.284;7.226;2023-10-19T08:26:46;11.90;99.90
21950;DHT22;11139;51.284;7.226;2023-10-19T08:29:12;11.90;99.90
21950;DHT22;11139;51.284;7.226;2023-10-19T08:31:41;11.90;99.90
21950;DHT22;11139;51.284;7.226;2023-10-19T08:34:07;11.90;99.90
21950;DHT22;11139;51.284;7.226;2023-10-19T08:36:35;11.90;99.90
21950;DHT22;11139;51.284;7.226;2023-10-19T08:39:01;11.90;99.90
21950;DHT22;11139;51.284;7.226;2023-10-19T08:41:31;11.90;99.90
21950;DHT22;11139;51.284;7.226;2023-10-19T08:43:57;11.90;99.90
21950;DHT22;11139;51.284;7.226;2023-10-19T08:46:23;11.90;99.90
21950;DHT22;11139;51.284;7.226;2023-10-19T08:48:50;11.90;99.90
21950;DHT22;11139;51.284;7.226;2023-10-19T08:51:16;11.90;99.90
21950;DHT22;11139;51.284;7.226;2023-10-19T08:53:42;11.90;99.90
21950;DHT22;11139;51.284;7.226;2023-10-19T08:56:09;11.90;99.90
21950;DHT22;11139;51.284;7.226;2023-10-19T08:58:37;11.90;99.90
21950;DHT22;11139;51.284;7.226;2023-10-19T09:01:02;11.90;99.90
21950;DHT22;11139;51.284;7.226;2023-10-19T09:03:35;11.90;99.90
21950;DHT22;11139;51.284;7.226;2023-10-19T09:06:04;11.90;99.90
21950;DHT22;11139;51.284;7.226;2023-10-19T09:08:30;11.90;99.90
21950;DHT22;11139;51.284;7.226;2023-10-19T09:11:09;11.90;99.90
21950;DHT22;11139;51.284;7.226;2023-10-19T09:13:42;11.90;99.90
21950;DHT22;11139;51.284;7.226;2023-10-19T09:16:09;11.90;99.90
21950;DHT22;11139;51.284;7.226;2023-10-19T09:18:35;12.00;99.90
21950;DHT22;11139;51.284;7.226;2023-10-19T09:21:00;11.90;99.90
21950;DHT22;11139;51.284;7.226;2023-10-19T09:23:35;12.00;99.90
21950;DHT22;11139;51.284;7.226;2023-10-19T09:26:01;12.00;99.90
21950;DHT22;11139;51.284;7.226;2023-10-19T09:28:31;12.00;99.90
21950;DHT22;11139;51.284;7.226;2023-10-19T09:31:00;12.00;99.90
21950;DHT22;11139;51.284;7.226;2023-10-19T09:33:25;12.00;99.90
21950;DHT22;11139;51.284;7.226;2023-10-19T09:35:52;12.00;99.90
21950;DHT22;11139;51.284;7.226;2023-10-19T09:38:26;12.00;99.90
21950;DHT22;11139;51.284;7.226;2023-10-19T09:40:52;12.00;99.90
21950;DHT22;11139;51.284;7.226;2023-10-19T09:43:41;12.00;99.90
21950;DHT22;11139;51.284;7.226;2023-10-19T09:46:07;12.00;99.90
21950;DHT22;11139;51.284;7.226;2023-10-19T09:48:40;12.00;99.90
21950;DHT22;11139;51.284;7.226;2023-10-19T09:51:09;12.00;99.90
21950;DHT22;11139;51.284;7.226;2023-10-19T09:53:36;12.00;99.90
21950;DHT22;11139;51.284;7.226;2023-10-19T09:56:03;12.10;99.90
21950;DHT22;11139;51.284;7.226;2023-10-19T09:58:33;12.10;99.90
21950;DHT22;11139;51.284;7.226;2023-10-19T10:00:59;12.10;99.90
21950;DHT22;11139;51.284;7.226;2023-10-19T10:06:09;12.10;99.90
21950;DHT22;11139;51.284;7.226;2023-10-19T10:08:35;12.10;99.90
21950;DHT22;11139;51.284;7.226;2023-10-19T10:11:18;12.10;99.90
21950;DHT22;11139;51.284;7.226;2023-10-19T10:13:44;12.10;99.90
21950;DHT22;11139;51.284;7.226;2023-10-19T10:16:25;12.10;99.90
21950;DHT22;11139;51.284;7.226;2023-10-19T10:18:56;12.10;99.90
21950;DHT22;11139;51.284;7.226;2023-10-19T10:21:24;12.10;99.90
21950;DHT22;11139;51.284;7.226;2023-10-19T10:23:56;12.20;99.90
21950;DHT22;11139;51.284;7.226;2023-10-19T10:26:23;12.20;99.90
21950;DHT22;11139;51.284;7.226;2023-10-19T10:31:41;12.20;99.90
21950;DHT22;11139;51.284;7.226;2023-10-19T10:34:08;12.20;99.90
21950;DHT22;11139;51.284;7.226;2023-10-19T10:36:56;12.30;99.90
21950;DHT22;11139;51.284;7.226;2023-10-19T10:39:19;12.30;99.90
21950;DHT22;11139;51.284;7.226;2023-10-19T10:41:44;12.30;99.90
21950;DHT22;11139;51.284;7.226;2023-10-19T10:44:11;12.30;99.90
21950;DHT22;11139;51.284;7.226;2023-10-19T10:46:36;12.30;99.90
21950;DHT22;11139;51.284;7.226;2023-10-19T10:49:08;12.30;99.90
21950;DHT22;11139;51.284;7.226;2023-10-19T10:51:34;12.30;99.90
21950;DHT22;11139;51.284;7.226;2023-10-19T10:54:00;12.30;99.90
21950;DHT22;11139;51.284;7.226;2023-10-19T10:56:26;12.30;99.90
21950;DHT22;11139;51.284;7.226;2023-10-19T10:58:51;12.40;99.90
21950;DHT22;11139;51.284;7.226;2023-10-19T11:01:30;12.30;99.90
21950;DHT22;11139;51.284;7.226;2023-10-19T11:04:08;12.30;99.90
21950;DHT22;11139;51.284;7.226;2023-10-19T11:06:45;12.40;99.90
21950;DHT22;11139;51.284;7.226;2023-10-19T11:09:10;12.40;99.90
21950;DHT22;11139;51.284;7.226;2023-10-19T11:11:37;12.40;99.90
21950;DHT22;11139;51.284;7.226;2023-10-19T11:14:10;12.40;99.90
21950;DHT22;11139;51.284;7.226;2023-10-19T11:16:38;12.40;99.90
21950;DHT22;11139;51.284;7.226;2023-10-19T11:19:08;12.40;99.90
21950;DHT22;11139;51.284;7.226;2023-10-19T11:21:35;12.40;99.90
21950;DHT22;11139;51.284;7.226;2023-10-19T11:24:01;12.40;99.90
21950;DHT22;11139;51.284;7.226;2023-10-19T11:26:27;12.40;99.90
21950;DHT22;11139;51.284;7.226;2023-10-19T11:29:16;12.40;99.90
21950;DHT22;11139;51.284;7.226;2023-10-19T11:31:41;12.40;99.90
21950;DHT22;11139;51.284;7.226;2023-10-19T11:34:21;12.40;99.90
21950;DHT22;11139;51.284;7.226;2023-10-19T11:36:51;12.40;99.90
21950;DHT22;11139;51.284;7.226;2023-10-19T11:39:17;12.40;99.90
21950;DHT22;11139;51.284;7.226;2023-10-19T11:41:42;12.40;99.90
21950;DHT22;11139;51.284;7.226;2023-10-19T11:44:08;12.50;99.90
21950;DHT22;11139;51.284;7.226;2023-10-19T11:46:33;12.40;99.90
21950;DHT22;11139;51.284;7.226;2023-10-19T11:48:59;12.50;99.90
21950;DHT22;11139;51.284;7.226;2023-10-19T11:51:28;12.50;99.90
21950;DHT22;11139;51.284;7.226;2023-10-19T11:53:56;12.50;99.90
21950;DHT22;11139;51.284;7.226;2023-10-19T11:56:22;12.50;99.90
21950;DHT22;11139;51.284;7.226;2023-10-19T11:58:47;12.50;99.90
21950;DHT22;11139;51.284;7.226;2023-10-19T12:01:16;12.50;99.90
21950;DHT22;11139;51.284;7.226;2023-10-19T12:03:44;12.50;99.90
21950;DHT22;11139;51.284;7.226;2023-10-19T12:06:13;12.50;99.90
21950;DHT22;11139;51.284;7.226;2023-10-19T12:08:44;12.50;99.90
21950;DHT22;11139;51.284;7.226;2023-10-19T12:11:09;12.50;99.90
21950;DHT22;11139;51.284;7.226;2023-10-19T12:13:42;12.50;99.90
21950;DHT22;11139;51.284;7.226;2023-10-19T12:16:11;12.50;99.90
21950;DHT22;11139;51.284;7.226;2023-10-19T12:18:46;12.50;99.90
21950;DHT22;11139;51.284;7.226;2023-10-19T12:21:13;12.60;99.90
21950;DHT22;11139;51.284;7.226;2023-10-19T12:23:40;12.50;99.90
21950;DHT22;11139;51.284;7.226;2023-10-19T12:26:06;12.60;99.90
21950;DHT22;11139;51.284;7.226;2023-10-19T12:28:37;12.60;99.90
21950;DHT22;11139;51.284;7.226;2023-10-19T12:31:03;12.60;99.90
21950;DHT22;11139;51.284;7.226;2023-10-19T12:33:30;12.60;99.90
21950;DHT22;11139;51.284;7.226;2023-10-19T12:36:00;12.60;99.90
21950;DHT22;11139;51.284;7.226;2023-10-19T12:38:25;12.60;99.90
21950;DHT22;11139;51.284;7.226;2023-10-19T12:40:51;12.60;99.90
21950;DHT22;11139;51.284;7.226;2023-10-19T12:43:17;12.60;99.90
21950;DHT22;11139;51.284;7.226;2023-10-19T12:45:47;12.60;99.90
21950;DHT22;11139;51.284;7.226;2023-10-19T12:48:19;12.60;99.90
21950;DHT22;11139;51.284;7.226;2023-10-19T12:50:45;12.70;99.90
21950;DHT22;11139;51.284;7.226;2023-10-19T12:53:10;12.60;99.90
21950;DHT22;11139;51.284;7.226;2023-10-19T12:55:36;12.70;99.90
21950;DHT22;11139;51.284;7.226;2023-10-19T12:58:04;12.60;99.90
21950;DHT22;11139;51.284;7.226;2023-10-19T13:00:34;12.60;99.90
21950;DHT22;11139;51.284;7.226;2023-10-19T13:03:07;12.70;99.90
21950;DHT22;11139;51.284;7.226;2023-10-19T13:05:33;12.70;99.90
21950;DHT22;11139;51.284;7.226;2023-10-19T13:07:59;12.70;99.90
21950;DHT22;11139;51.284;7.226;2023-10-19T13:10:28;12.70;99.90
21950;DHT22;11139;51.284;7.226;2023-10-19T13:13:00;12.70;99.90
21950;DHT22;11139;51.284;7.226;2023-10-19T13:15:30;12.70;99.90
21950;DHT22;11139;51.284;7.226;2023-10-19T13:17:56;12.70;99.90
21950;DHT22;11139;51.284;7.226;2023-10-19T13:20:24;12.70;99.90
21950;DHT22;11139;51.284;7.226;2023-10-19T13:22:51;12.70;99.90
21950;DHT22;11139;51.284;7.226;2023-10-19T13:25:17;12.70;99.90
21950;DHT22;11139;51.284;7.226;2023-10-19T13:27:43;12.70;99.90
21950;DHT22;11139;51.284;7.226;2023-10-19T13:30:09;12.70;99.90
21950;DHT22;11139;51.284;7.226;2023-10-19T13:32:36;12.70;99.90
21950;DHT22;11139;51.284;7.226;2023-10-19T13:35:02;12.80;99.90
21950;DHT22;11139;51.284;7.226;2023-10-19T13:37:27;12.80;99.90
21950;DHT22;11139;51.284;7.226;2023-10-19T13:39:53;12.80;99.90
21950;DHT22;11139;51.284;7.226;2023-10-19T13:42:20;12.80;99.90
21950;DHT22;11139;51.284;7.226;2023-10-19T13:44:46;12.90;99.90
21950;DHT22;11139;51.284;7.226;2023-10-19T13:47:12;12.90;99.90
21950;DHT22;11139;51.284;7.226;2023-10-19T13:49:37;13.00;99.90
21950;DHT22;11139;51.284;7.226;2023-10-19T13:52:03;13.00;99.90
21950;DHT22;11139;51.284;7.226;2023-10-19T13:54:30;13.00;99.90
21950;DHT22;11139;51.284;7.226;2023-10-19T13:56:55;13.00;99.90
21950;DHT22;11139;51.284;7.226;2023-10-19T13:59:21;13.00;99.90
21950;DHT22;11139;51.284;7.226;2023-10-19T14:01:49;13.00;99.90
21950;DHT22;11139;51.284;7.226;2023-10-19T14:04:15;13.10;99.90
21950;DHT22;11139;51.284;7.226;2023-10-19T14:06:41;13.10;99.90
21950;DHT22;11139;51.284;7.226;2023-10-19T14:09:08;13.10;99.90
21950;DHT22;11139;51.284;7.226;2023-10-19T14:11:38;13.10;99.90
21950;DHT22;11139;51.284;7.226;2023-10-19T14:14:03;13.10;99.90
21950;DHT22;11139;51.284;7.226;2023-10-19T14:16:29;13.10;99.90
21950;DHT22;11139;51.284;7.226;2023-10-19T14:18:56;13.10;99.90
21950;DHT22;11139;51.284;7.226;2023-10-19T14:21:21;13.10;99.90
21950;DHT22;11139;51.284;7.226;2023-10-19T14:23:48;13.10;99.90
21950;DHT22;11139;51.284;7.226;2023-10-19T14:26:14;13.10;99.90
21950;DHT22;11139;51.284;7.226;2023-10-19T14:28:39;13.10;99.90
21950;DHT22;11139;51.284;7.226;2023-10-19T14:31:06;13.20;99.90
21950;DHT22;11139;51.284;7.226;2023-10-19T14:33:33;13.20;99.90
21950;DHT22;11139;51.284;7.226;2023-10-19T14:36:01;13.10;99.90
21950;DHT22;11139;51.284;7.226;2023-10-19T14:38:26;13.20;99.90
21950;DHT22;11139;51.284;7.226;2023-10-19T14:40:52;13.20;99.90
21950;DHT22;11139;51.284;7.226;2023-10-19T14:43:18;13.20;99.90
21950;DHT22;11139;51.284;7.226;2023-10-19T14:45:44;13.20;99.90
21950;DHT22;11139;51.284;7.226;2023-10-19T14:48:09;13.20;99.90
21950;DHT22;11139;51.284;7.226;2023-10-19T14:50:36;13.20;99.90
21950;DHT22;11139;51.284;7.226;2023-10-19T14:53:07;13.20;99.90
21950;DHT22;11139;51.284;7.226;2023-10-19T14:55:32;13.20;99.90
21950;DHT22;11139;51.284;7.226;2023-10-19T14:57:58;13.20;99.90
21950;DHT22;11139;51.284;7.226;2023-10-19T15:00:25;13.20;99.90
21950;DHT22;11139;51.284;7.226;2023-10-19T15:02:58;13.20;99.90
21950;DHT22;11139;51.284;7.226;2023-10-19T15:05:26;13.30;99.90
21950;DHT22;11139;51.284;7.226;2023-10-19T15:07:52;13.30;99.90
21950;DHT22;11139;51.284;7.226;2023-10-19T15:10:19;13.30;99.90
21950;DHT22;11139;51.284;7.226;2023-10-19T15:12:45;13.30;99.90
21950;DHT22;11139;51.284;7.226;2023-10-19T15:15:10;13.30;99.90
21950;DHT22;11139;51.284;7.226;2023-10-19T15:17:45;13.30;99.90
21950;DHT22;11139;51.284;7.226;2023-10-19T15:20:12;13.30;99.90
21950;DHT22;11139;51.284;7.226;2023-10-19T15:22:40;13.30;99.90
21950;DHT22;11139;51.284;7.226;2023-10-19T15:25:05;13.30;99.90
21950;DHT22;11139;51.284;7.226;2023-10-19T15:27:36;13.30;99.90
21950;DHT22;11139;51.284;7.226;2023-10-19T15:30:02;13.30;99.90
21950;DHT22;11139;51.284;7.226;2023-10-19T15:32:28;13.30;99.90
21950;DHT22;11139;51.284;7.226;2023-10-19T15:34:56;13.40;99.90
21950;DHT22;11139;51.284;7.226;2023-10-19T15:37:21;13.40;99.90
21950;DHT22;11139;51.284;7.226;2023-10-19T15:39:49;13.40;99.90
21950;DHT22;11139;51.284;7.226;2023-10-19T15:42:14;13.40;99.90